createdAt,value
2023-02-13T00:04:28.434Z,0.3
2023-02-13T00:10:00.887Z,0.3
2023-02-13T00:15:47.565Z,0.3
2023-02-13T00:21:05.021Z,0.2
2023-02-13T00:26:46.520Z,0.1
2023-02-13T00:32:12.648Z,0.1
2023-02-13T00:37:59.760Z,0
2023-02-13T00:43:26.620Z,0.4
2023-02-13T00:48:46.590Z,0.6
2023-02-13T00:54:16.174Z,0.6
2023-02-13T00:59:46.389Z,0.4
2023-02-13T01:05:25.688Z,0.4
2023-02-13T01:11:02.436Z,0.4
2023-02-13T01:16:30.633Z,0.2
2023-02-13T01:22:22.466Z,0.1
2023-02-13T01:27:31.682Z,0
2023-02-13T01:33:11.372Z,0
2023-02-13T01:38:45.593Z,0
2023-02-13T01:44:17.277Z,0.1
2023-02-13T01:49:48.512Z,0.2
2023-02-13T01:55:13.110Z,0.4
2023-02-13T02:00:57.237Z,0.5
2023-02-13T02:06:27.290Z,0.6
2023-02-13T02:12:02.954Z,0.7
2023-02-13T02:17:34.261Z,0.7
2023-02-13T02:23:05.988Z,0.9
2023-02-13T02:28:37.519Z,1
2023-02-13T02:34:07.811Z,0.9
2023-02-13T02:39:43.416Z,0.7
2023-02-13T02:45:27.674Z,0.8
2023-02-13T02:50:54.718Z,0.7
2023-02-13T02:56:18.986Z,0.9
2023-02-13T03:02:01.025Z,1
2023-02-13T03:07:42.394Z,1
2023-02-13T03:13:20.216Z,1
2023-02-13T03:18:30.230Z,1
2023-02-13T03:24:19.762Z,0.9
2023-02-13T03:29:33.417Z,0.7
2023-02-13T03:35:25.910Z,0.7
2023-02-13T03:40:46.532Z,0.6
2023-02-13T03:46:16.150Z,0.6
2023-02-13T03:52:02.861Z,0.5
2023-02-13T03:57:34.487Z,0.5
2023-02-13T04:03:08.147Z,0.6
2023-02-13T04:08:37.813Z,0.6
2023-02-13T04:14:23.230Z,0.6
2023-02-13T04:19:30.724Z,0.7
2023-02-13T04:25:21.986Z,0.7
2023-02-13T04:30:37.917Z,0.7
2023-02-13T04:36:19.756Z,0.7
2023-02-13T04:41:43.092Z,0.9
2023-02-13T04:47:32.926Z,0.8
2023-02-13T04:52:54.034Z,0.9
2023-02-13T04:58:47.490Z,0.9
2023-02-13T05:04:16.863Z,0.9
2023-02-13T05:09:41.439Z,0.9
2023-02-13T05:15:02.010Z,0.9
2023-02-13T05:20:32.922Z,0.9
2023-02-13T05:26:14.287Z,0.8
2023-02-13T05:31:51.877Z,0.8
2023-02-13T05:37:18.511Z,0.9
2023-02-13T05:42:50.904Z,0.9
2023-02-13T05:48:22.442Z,0.9
2023-02-13T05:53:51.121Z,0.9
2023-02-13T05:59:37.813Z,0.9
2023-02-13T06:04:59.681Z,0.8
2023-02-13T06:10:32.247Z,0.9
2023-02-13T06:16:03.713Z,0.8
2023-02-13T06:21:36.619Z,0.8
2023-02-13T06:27:17.349Z,0.9
2023-02-13T06:32:48.959Z,0.9
2023-02-13T06:38:22.021Z,1
2023-02-13T06:44:04.781Z,1.1
2023-02-13T06:49:39.869Z,1
2023-02-13T06:55:02.470Z,1
2023-02-13T07:00:43.920Z,1.1
2023-02-13T07:06:14.480Z,1.1
2023-02-13T07:11:54.601Z,1.2
2023-02-13T07:17:29.947Z,1.2
2023-02-13T07:22:57.814Z,1.1
2023-02-13T07:28:33.793Z,1.2
2023-02-13T07:34:08.286Z,1.3
2023-02-13T07:39:19.310Z,1.3
2023-02-13T07:44:52.169Z,1.3
2023-02-13T07:50:25.981Z,1.4
2023-02-13T07:56:05.029Z,1.4
2023-02-13T08:01:31.022Z,1.5
2023-02-13T08:07:26.708Z,1.6
2023-02-13T08:12:36.791Z,1.7
2023-02-13T08:18:10.178Z,1.8
2023-02-13T08:23:42.925Z,1.8
2023-02-13T08:29:36.431Z,1.8
2023-02-13T08:34:55.357Z,2
2023-02-13T08:40:23.456Z,2
2023-02-13T08:46:08.855Z,1.8
2023-02-13T08:51:28.308Z,1.9
2023-02-13T08:57:25.848Z,1.9
2023-02-13T09:02:57.004Z,2.1
2023-02-13T09:14:01.612Z,2.3
2023-02-13T09:19:26.401Z,2.3
2023-02-13T09:24:45.637Z,2.2
2023-02-13T09:30:41.916Z,2.4
2023-02-13T09:36:07.788Z,2.6
2023-02-13T09:41:48.025Z,2.6
2023-02-13T09:47:22.019Z,2.7
2023-02-13T09:52:52.856Z,2.8
2023-02-13T09:58:22.275Z,3
2023-02-13T10:04:00.228Z,3
2023-02-13T10:09:20.124Z,3.1
2023-02-13T10:14:44.031Z,3.2
2023-02-13T10:20:45.659Z,3.1
2023-02-13T10:26:04.020Z,3.6
2023-02-13T10:31:42.321Z,3.6
2023-02-13T10:37:02.738Z,3.6
2023-02-13T10:42:48.429Z,3.2
2023-02-13T10:48:15.746Z,3.1
2023-02-13T10:53:48.826Z,3.1
2023-02-13T10:59:15.619Z,3.5
2023-02-13T11:04:59.219Z,3.6
2023-02-13T11:10:44.068Z,3.3
2023-02-13T11:16:05.981Z,3.6
2023-02-13T11:21:42.093Z,3.9
2023-02-13T11:27:21.167Z,3.3
2023-02-13T11:32:58.529Z,3.4
2023-02-13T11:38:11.210Z,3.7
2023-02-13T11:43:58.934Z,3.7
2023-02-13T11:49:16.561Z,3.6
2023-02-13T11:55:13.998Z,4.1
2023-02-13T12:00:39.965Z,4.1
2023-02-13T12:06:20.738Z,4.6
2023-02-13T12:11:35.180Z,4.9
2023-02-13T12:17:12.519Z,4.2
2023-02-13T12:23:05.046Z,4.2
2023-02-13T12:28:20.974Z,4.4
2023-02-13T12:33:56.753Z,4.4
2023-02-13T12:39:32.213Z,5.2
2023-02-13T12:45:16.871Z,6.2
2023-02-13T12:50:54.488Z,6.1
2023-02-13T12:56:16.798Z,6.4
2023-02-13T13:01:42.346Z,5.9
2023-02-13T13:07:28.109Z,5.9
2023-02-13T13:12:41.998Z,6.5
2023-02-13T13:18:15.847Z,6.9
2023-02-13T13:23:58.706Z,6.8
2023-02-13T13:29:37.540Z,6.8
2023-02-13T13:35:00.297Z,6.8
2023-02-13T13:40:40.029Z,7.4
2023-02-13T13:46:15.842Z,7
2023-02-13T13:51:59.530Z,8
2023-02-13T13:57:23.349Z,7.4
2023-02-13T14:03:16.726Z,8.1
2023-02-13T14:09:01.906Z,8.4
2023-02-13T14:14:24.583Z,8.8
2023-02-13T14:19:59.018Z,9.1
2023-02-13T14:25:27.974Z,8.8
2023-02-13T14:31:26.120Z,8.3
2023-02-13T14:37:02.519Z,8.8
2023-02-13T14:42:24.811Z,8.2
2023-02-13T14:47:50.838Z,8.5
2023-02-13T14:53:22.313Z,8.6
2023-02-13T14:59:01.982Z,8.1
2023-02-13T15:04:56.982Z,8.6
2023-02-13T15:10:04.178Z,8.5
2023-02-13T15:15:42.711Z,8.6
2023-02-13T15:21:23.228Z,8.8
2023-02-13T15:27:06.923Z,8.9
2023-02-13T15:32:24.028Z,8.2
2023-02-13T15:38:05.764Z,7.9
2023-02-13T15:43:30.067Z,7.7
2023-02-13T15:49:15.242Z,7.5
2023-02-13T15:55:00.723Z,7.4
2023-02-13T16:00:06.611Z,7.3
2023-02-13T16:05:51.301Z,7.2
2023-02-13T16:11:16.492Z,7.1
2023-02-13T16:17:09.130Z,6.9
2023-02-13T16:22:21.477Z,6.7
2023-02-13T16:28:16.697Z,6.5
2023-02-13T16:33:34.305Z,6.3
2023-02-13T16:39:28.013Z,5.9
2023-02-13T16:44:35.852Z,5.7
2023-02-13T16:50:31.098Z,5.5
2023-02-13T16:56:01.422Z,5.2
2023-02-13T17:01:20.521Z,4.9
2023-02-13T17:06:48.776Z,4.9
2023-02-13T17:12:24.308Z,5
2023-02-13T17:17:57.007Z,4.6
2023-02-13T17:23:53.910Z,4.3
2023-02-13T17:29:10.952Z,4.1
2023-02-13T17:34:52.877Z,4.2
2023-02-13T17:40:14.585Z,3.8
2023-02-13T17:46:02.335Z,3.4
2023-02-13T17:51:24.280Z,3.4
2023-02-13T17:56:58.793Z,3.7
2023-02-13T18:02:42.068Z,3.3
2023-02-13T18:08:16.204Z,3.4
2023-02-13T18:13:35.741Z,3.3
2023-02-13T18:19:05.702Z,2.9
2023-02-13T18:24:40.379Z,2.7
2023-02-13T18:30:23.779Z,2.5
2023-02-13T18:36:01.419Z,2.6
2023-02-13T18:41:36.426Z,3.2
2023-02-13T18:46:51.230Z,3.1
2023-02-13T18:52:26.508Z,2.6
2023-02-13T18:58:07.308Z,2.2
2023-02-13T19:03:45.185Z,2.1
2023-02-13T19:08:59.064Z,1.9
2023-02-13T19:14:27.024Z,1.9
2023-02-13T19:20:14.976Z,2.1
2023-02-13T19:25:35.208Z,2.1
2023-02-13T19:31:28.849Z,2.2
2023-02-13T19:36:55.283Z,2
2023-02-13T19:42:30.599Z,2.1
2023-02-13T19:48:01.025Z,2.2
2023-02-13T19:53:19.226Z,2.2
2023-02-13T19:58:57.092Z,2.4
2023-02-13T20:04:48.686Z,2.3
2023-02-13T20:09:59.919Z,2.5
2023-02-13T20:15:43.063Z,2.1
2023-02-13T20:21:19.791Z,1.6
2023-02-13T20:26:42.238Z,1.7
2023-02-13T20:32:29.726Z,1.1
2023-02-13T20:37:56.563Z,1.1
2023-02-13T20:43:26.642Z,1.1
2023-02-13T20:48:48.090Z,1.3
2023-02-13T20:54:25.862Z,1.2
2023-02-13T20:59:50.066Z,1.5
2023-02-13T21:05:40.676Z,1.3
2023-02-13T21:10:59.454Z,1.1
2023-02-13T21:16:33.952Z,1.2
2023-02-13T21:22:01.738Z,1.3
2023-02-13T21:27:43.207Z,1.3
2023-02-13T21:33:29.874Z,1.1
2023-02-13T21:38:47.378Z,0.9
2023-02-13T21:44:31.444Z,0.7
2023-02-13T21:49:46.946Z,1
2023-02-13T21:55:21.274Z,0.6
2023-02-13T22:01:11.469Z,0.4
2023-02-13T22:06:34.739Z,-0.4
2023-02-13T22:11:56.577Z,0
2023-02-13T22:17:36.848Z,-0.1
2023-02-13T22:23:05.225Z,0
2023-02-13T22:28:37.139Z,-0.1
2023-02-13T22:34:20.458Z,-0.3
2023-02-13T22:39:47.446Z,-0.1
2023-02-13T22:45:16.688Z,-0.1
2023-02-13T22:50:54.898Z,0
2023-02-13T22:56:41.512Z,-0.3
2023-02-13T23:01:58.752Z,-0.4
2023-02-13T23:07:21.441Z,-0.4
2023-02-13T23:13:12.608Z,-0.1
2023-02-13T23:18:31.052Z,-0.2
2023-02-13T23:24:08.995Z,-0.3
2023-02-13T23:29:57.077Z,-0.7
2023-02-13T23:35:12.895Z,-0.8
2023-02-13T23:40:49.321Z,-0.7
2023-02-13T23:46:25.518Z,-0.9
2023-02-13T23:52:04.475Z,-1.1
2023-02-13T23:57:25.927Z,-1.2
